Terminal Aerodrome Forecast
Issued by NWS Flagstaff, AZ

Home | Current Version | Previous Version | Text Only | Print | Product List | Glossary On
Versions: 1 2 3 4 5 6 7 8 9 10 11 12 13 14 15
000
FTUS45 KFGZ 272343
TAFFLG
TAF
KFLG 272343Z 2800/2824 25010G18KT P6SM VCSH SCT080 BKN100
     FM280300 VRB03KT P6SM FEW080
     FM281900 19008G15KT P6SM SCT080 BKN100=

USA.gov is the U.S. government's official web portal to all federal, state and local government web resources and services.